Time;durP1;ratioP1;P1;durP2;ratioP2;P2;SDS_P1;SDS_P2;PMS_P1;PMS_P2;Temp;Humidity;BMP_temperature;BMP_pressure;BME280_temperature;BME280_humidity;BME280_pressure;Samples;Min_cycle;Max_cycle;Signal;HPM_P1;HPM_P2
2022/01/02 00:01:37;;;;;;;79.53;8.03;;;;;;;10.05;100.00;98688.38;5070765;28;20602;-63
2022/01/02 00:04:04;;;;;;;103.43;10.00;;;;;;;10.07;100.00;98683.63;5077836;28;20606;-63
2022/01/02 00:06:34;;;;;;;59.70;7.30;;;;;;;10.01;100.00;98684.56;5080738;28;20601;-63
2022/01/02 00:09:06;;;;;;;94.77;9.43;;;;;;;10.05;100.00;98685.72;5079964;28;20629;-63
2022/01/02 00:11:34;;;;;;;81.67;8.93;;;;;;;10.22;100.00;98678.56;5077365;28;20603;-63
2022/01/02 00:14:08;;;;;;;64.33;8.70;;;;;;;10.30;100.00;98667.50;5077543;28;20603;-63
2022/01/02 00:16:36;;;;;;;88.60;9.33;;;;;;;10.28;100.00;98666.91;5080676;28;20624;-65
2022/01/02 00:19:16;;;;;;;75.47;7.97;;;;;;;10.20;100.00;98670.00;5079739;28;20649;-64
2022/01/02 00:21:46;;;;;;;100.53;10.23;;;;;;;10.32;100.00;98676.06;5077123;28;20638;-64
2022/01/02 00:24:18;;;;;;;73.77;8.07;;;;;;;10.38;100.00;98669.75;5068035;28;20668;-63
2022/01/02 00:26:48;;;;;;;71.47;7.50;;;;;;;10.44;100.00;98671.44;5080502;28;20636;-63
2022/01/02 00:29:15;;;;;;;88.23;10.83;;;;;;;10.50;100.00;98673.16;5077907;28;20617;-65
2022/01/02 00:31:42;;;;;;;88.63;8.80;;;;;;;10.57;100.00;98668.47;5077042;28;20637;-64
2022/01/02 00:34:10;;;;;;;54.57;8.13;;;;;;;10.59;100.00;98671.69;5078536;28;20656;-64
2022/01/02 00:36:37;;;;;;;85.47;8.83;;;;;;;10.63;100.00;98672.81;5080499;28;20623;-65
2022/01/02 00:39:07;;;;;;;63.17;8.77;;;;;;;10.65;100.00;98665.34;5079322;28;20637;-62
2022/01/02 00:41:40;;;;;;;59.10;7.97;;;;;;;10.56;100.00;98656.16;5077074;28;21305;-63
2022/01/02 00:44:14;;;;;;;78.43;9.60;;;;;;;10.62;100.00;98660.50;5077798;28;20684;-64
2022/01/02 00:46:51;;;;;;;106.73;11.30;;;;;;;10.54;100.00;98647.56;5080460;28;20597;-63
2022/01/02 00:49:24;;;;;;;108.07;11.47;;;;;;;10.52;100.00;98648.88;5077463;28;20602;-64
2022/01/02 00:51:56;;;;;;;80.17;9.80;;;;;;;10.41;100.00;98657.78;5076985;28;20694;-62
2022/01/02 00:54:29;;;;;;;88.63;10.17;;;;;;;10.46;100.00;98652.53;5072139;28;20616;-64
2022/01/02 00:57:04;;;;;;;93.50;8.03;;;;;;;10.14;100.00;98652.28;5083531;28;20693;-63
2022/01/02 00:59:35;;;;;;;137.37;11.90;;;;;;;9.83;100.00;98644.78;5072961;28;20645;-63
2022/01/02 01:02:04;;;;;;;96.37;11.27;;;;;;;9.99;100.00;98638.66;5080378;28;20633;-63
2022/01/02 01:04:32;;;;;;;70.87;8.97;;;;;;;9.98;100.00;98631.69;5083539;28;20608;-64
2022/01/02 01:07:04;;;;;;;60.63;8.57;;;;;;;9.82;100.00;98632.47;5083329;28;20602;-64
2022/01/02 01:09:33;;;;;;;113.87;11.53;;;;;;;9.52;100.00;98638.88;5080060;28;20599;-64
2022/01/02 01:12:01;;;;;;;97.10;10.33;;;;;;;9.15;100.00;98637.63;5080207;28;21414;-64
2022/01/02 01:14:29;;;;;;;122.77;11.00;;;;;;;9.33;100.00;98640.09;5083387;28;20605;-63
2022/01/02 01:16:57;;;;;;;69.80;8.67;;;;;;;9.35;100.00;98632.66;5083406;28;20620;-63
2022/01/02 01:19:24;;;;;;;47.67;7.63;;;;;;;9.63;100.00;98635.34;5071799;28;20641;-62
2022/01/02 01:21:52;;;;;;;73.40;9.23;;;;;;;9.91;100.00;98631.03;5079816;28;20601;-64
2022/01/02 01:24:19;;;;;;;62.40;8.63;;;;;;;10.00;100.00;98634.91;5071677;28;20605;-63
2022/01/02 01:26:50;;;;;;;52.97;8.00;;;;;;;10.13;100.00;98631.94;5083391;28;20639;-64
2022/01/02 01:29:16;;;;;;;57.40;7.60;;;;;;;10.11;100.00;98636.72;5080797;28;20604;-63
2022/01/02 01:31:44;;;;;;;92.40;9.47;;;;;;;10.03;100.00;98629.09;5079944;28;20598;-63
2022/01/02 01:34:10;;;;;;;49.80;7.40;;;;;;;10.00;100.00;98627.72;5081439;28;20626;-63
2022/01/02 01:36:37;;;;;;;49.27;6.97;;;;;;;9.98;100.00;98627.16;5083098;28;20601;-63
2022/01/02 01:39:04;;;;;;;50.17;7.93;;;;;;;10.13;100.00;98634.59;5082085;28;20648;-62
2022/01/02 01:41:34;;;;;;;89.97;8.43;;;;;;;10.20;100.00;98624.63;5079488;28;20606;-63
2022/01/02 01:44:09;;;;;;;74.77;8.93;;;;;;;10.28;100.00;98632.22;5079572;28;20606;-63
2022/01/02 01:46:37;;;;;;;133.03;10.37;;;;;;;10.16;100.00;98636.81;5082948;28;20642;-64
2022/01/02 01:49:14;;;;;;;64.07;7.60;;;;;;;9.99;100.00;98619.97;5081884;28;20609;-63
2022/01/02 01:51:41;;;;;;;99.17;9.70;;;;;;;9.95;100.00;98622.31;5079531;28;20606;-64
2022/01/02 01:54:07;;;;;;;76.73;8.03;;;;;;;9.88;100.00;98621.66;5069377;28;20621;-63
2022/01/02 01:56:34;;;;;;;110.40;10.03;;;;;;;9.56;100.00;98618.66;5082666;28;20624;-63
2022/01/02 01:59:03;;;;;;;43.47;7.13;;;;;;;9.16;100.00;98602.72;5082064;28;20637;-64
2022/01/02 02:01:30;;;;;;;63.97;8.73;;;;;;;8.66;100.00;98597.16;5079241;28;20768;-62
2022/01/02 02:03:57;;;;;;;105.30;9.93;;;;;;;8.83;100.00;98602.59;5078915;28;20605;-64
2022/01/02 02:06:24;;;;;;;49.63;7.30;;;;;;;8.94;100.00;98590.28;5071149;28;20610;-63
2022/01/02 02:08:52;;;;;;;49.83;7.40;;;;;;;8.52;100.00;98589.66;5078837;28;20598;-63
2022/01/02 02:11:21;;;;;;;43.83;6.83;;;;;;;9.01;100.00;98588.28;5081957;28;20627;-63
2022/01/02 02:13:48;;;;;;;51.17;8.10;;;;;;;9.26;100.00;98579.97;5082433;28;20602;-63
2022/01/02 02:16:16;;;;;;;44.13;8.13;;;;;;;9.53;100.00;98584.50;5079976;28;20655;-63
2022/01/02 02:18:42;;;;;;;126.83;9.27;;;;;;;9.31;100.00;98588.91;5078754;28;20629;-63
2022/01/02 02:21:10;;;;;;;47.13;7.73;;;;;;;9.53;100.00;98575.69;5080294;28;20693;-63
2022/01/02 02:23:37;;;;;;;66.27;9.10;;;;;;;9.69;100.00;98578.38;5073577;28;20617;-64
2022/01/02 02:26:04;;;;;;;90.17;9.03;;;;;;;9.68;100.00;98589.31;5079457;28;20595;-62
2022/01/02 02:28:30;;;;;;;99.20;8.83;;;;;;;9.49;100.00;98583.38;5082094;28;20601;-62
2022/01/02 02:30:57;;;;;;;65.23;8.63;;;;;;;9.16;100.00;98561.94;5082187;28;20590;-63
2022/01/02 02:33:24;;;;;;;63.70;7.63;;;;;;;8.96;100.00;98556.22;5070672;28;20610;-63
2022/01/02 02:35:51;;;;;;;90.27;9.23;;;;;;;8.66;100.00;98553.78;5078400;28;20609;-62
2022/01/02 02:38:20;;;;;;;50.33;7.53;;;;;;;8.71;100.00;98561.03;5081070;28;21456;-63
2022/01/02 02:40:47;;;;;;;110.03;9.60;;;;;;;9.15;100.00;98566.47;5081772;28;20632;-62
2022/01/02 02:43:25;;;;;;;75.00;8.07;;;;;;;9.31;100.00;98572.09;5079722;28;20615;-63
2022/01/02 02:51:27;;;;;;;72.30;8.03;;;;;;;9.95;100.00;98568.13;5081550;28;20628;-63
2022/01/02 02:53:55;;;;;;;83.30;9.50;;;;;;;10.04;100.00;98550.66;5070429;28;20682;-64
2022/01/02 02:56:24;;;;;;;56.40;7.00;;;;;;;10.07;100.00;98555.50;5081306;28;20609;-63
2022/01/02 02:58:55;;;;;;;69.93;8.67;;;;;;;10.02;100.00;98558.13;5081352;28;20722;-63
2022/01/02 03:01:23;;;;;;;86.23;8.27;;;;;;;10.08;100.00;98557.13;5078295;28;21178;-63
2022/01/02 03:03:50;;;;;;;116.33;10.20;;;;;;;10.14;100.00;98553.53;5077919;28;20628;-63
2022/01/02 03:06:18;;;;;;;53.63;7.60;;;;;;;10.23;100.00;98555.53;5080618;28;20633;-64
2022/01/02 03:08:46;;;;;;;70.10;8.27;;;;;;;10.13;100.00;98551.88;5081285;28;20618;-63
2022/01/02 03:11:18;;;;;;;54.30;7.50;;;;;;;10.07;100.00;98548.31;5079296;28;20597;-63
2022/01/02 03:13:46;;;;;;;54.03;7.17;;;;;;;10.08;100.00;98551.81;5078018;28;20714;-63
2022/01/02 03:16:13;;;;;;;65.83;8.57;;;;;;;10.02;100.00;98550.09;5079519;28;20640;-63
2022/01/02 03:18:40;;;;;;;73.93;8.40;;;;;;;10.11;100.00;98540.63;5081314;28;20597;-64
2022/01/02 03:21:07;;;;;;;62.40;7.97;;;;;;;10.12;100.00;98542.25;5079940;28;20609;-63
2022/01/02 03:23:34;;;;;;;89.73;8.97;;;;;;;9.92;100.00;98537.41;5066530;28;20607;-63
2022/01/02 03:26:01;;;;;;;168.27;12.27;;;;;;;9.93;100.00;98517.69;5077961;28;20610;-63
2022/01/02 03:28:29;;;;;;;65.77;8.27;;;;;;;9.95;100.00;98517.44;5081109;28;20606;-63
2022/01/02 03:30:56;;;;;;;70.53;7.70;;;;;;;9.97;100.00;98523.31;5081006;28;20631;-63
2022/01/02 03:33:22;;;;;;;62.47;7.50;;;;;;;9.87;100.00;98523.19;5077601;28;20621;-63
2022/01/02 03:35:49;;;;;;;56.07;6.43;;;;;;;10.01;100.00;98524.47;5077484;28;20613;-63
2022/01/02 03:38:16;;;;;;;43.03;6.27;;;;;;;10.03;100.00;98522.34;5080172;28;20598;-64
2022/01/02 03:40:43;;;;;;;63.33;7.57;;;;;;;10.10;100.00;98523.00;5081099;28;20653;-63
2022/01/02 03:43:10;;;;;;;100.50;8.40;;;;;;;10.01;100.00;98513.78;5079303;28;20707;-63
2022/01/02 03:45:38;;;;;;;83.17;9.07;;;;;;;9.87;100.00;98516.00;5077268;28;20634;-63
2022/01/02 03:48:04;;;;;;;97.40;8.43;;;;;;;9.74;100.00;98503.81;5078326;28;20590;-63
2022/01/02 03:50:31;;;;;;;62.50;7.20;;;;;;;9.73;100.00;98499.50;5080940;28;20605;-63
2022/01/02 03:52:58;;;;;;;58.53;8.00;;;;;;;9.80;100.00;98490.53;5069791;28;20603;-63
2022/01/02 03:55:24;;;;;;;97.43;9.27;;;;;;;9.78;100.00;98494.25;5069299;28;20614;-63
2022/01/02 03:57:51;;;;;;;87.73;9.53;;;;;;;9.78;100.00;98494.25;5077254;28;20657;-63
2022/01/02 04:00:19;;;;;;;89.60;9.57;;;;;;;9.68;100.00;98502.09;5079977;28;20698;-64
2022/01/02 04:02:47;;;;;;;64.97;7.97;;;;;;;9.86;100.00;98495.69;5080680;28;20639;-63
2022/01/02 04:05:16;;;;;;;42.93;7.47;;;;;;;9.93;100.00;98495.53;5078540;28;20601;-63
2022/01/02 04:07:44;;;;;;;79.77;7.83;;;;;;;9.85;100.00;98488.75;5077214;28;20614;-62
2022/01/02 04:10:13;;;;;;;116.47;9.43;;;;;;;9.74;100.00;98484.31;5078703;28;20591;-63
2022/01/02 04:12:40;;;;;;;102.77;8.57;;;;;;;9.68;100.00;98490.63;5080780;28;20628;-63
2022/01/02 04:15:09;;;;;;;77.93;8.03;;;;;;;9.49;100.00;98478.56;5079205;28;20597;-63
2022/01/02 04:17:36;;;;;;;61.87;5.90;;;;;;;9.31;100.00;98471.63;5077251;28;20594;-62
2022/01/02 04:20:06;;;;;;;60.83;7.30;;;;;;;9.43;100.00;98472.34;5077478;28;20646;-63
2022/01/02 04:22:33;;;;;;;61.17;6.43;;;;;;;9.17;100.00;98475.63;5076458;28;20606;-63
2022/01/02 04:25:00;;;;;;;72.43;6.67;;;;;;;9.25;100.00;98477.91;5073888;28;20695;-63
2022/01/02 04:27:26;;;;;;;73.00;7.17;;;;;;;9.10;100.00;98469.63;5082028;28;21074;-64
2022/01/02 04:29:53;;;;;;;33.30;4.93;;;;;;;8.93;100.00;98466.13;5084490;28;20601;-63
2022/01/02 04:32:20;;;;;;;87.37;8.60;;;;;;;9.17;100.00;98481.78;5081374;28;20602;-63
2022/01/02 04:34:47;;;;;;;45.70;6.30;;;;;;;9.38;100.00;98472.25;5080985;28;20614;-63
2022/01/02 04:37:14;;;;;;;54.13;6.60;;;;;;;9.39;100.00;98467.75;5083077;28;20606;-63
2022/01/02 04:39:42;;;;;;;94.67;8.37;;;;;;;9.03;100.00;98464.47;5084440;28;20719;-63
2022/01/02 04:42:09;;;;;;;56.00;6.83;;;;;;;9.31;100.00;98468.16;5083022;28;20594;-63
2022/01/02 04:44:35;;;;;;;39.40;5.07;;;;;;;9.54;100.00;98465.31;5080760;28;20634;-63
2022/01/02 04:47:03;;;;;;;41.33;5.00;;;;;;;9.53;100.00;98469.06;5081250;28;21439;-63
2022/01/02 04:49:29;;;;;;;59.70;6.33;;;;;;;9.62;100.00;98463.03;5084268;28;20610;-63
2022/01/02 04:51:56;;;;;;;65.00;6.90;;;;;;;9.62;100.00;98457.72;5084130;28;20621;-63
2022/01/02 04:54:24;;;;;;;41.00;5.57;;;;;;;9.42;100.00;98453.94;5072471;28;20594;-62
2022/01/02 04:56:51;;;;;;;64.40;6.80;;;;;;;9.30;100.00;98445.19;5084293;28;20593;-63
2022/01/02 04:59:18;;;;;;;42.43;5.47;;;;;;;9.20;100.00;98446.66;5081461;28;20613;-62
2022/01/02 05:01:45;;;;;;;48.27;4.97;;;;;;;9.12;100.00;98446.25;5080586;28;20627;-63
2022/01/02 05:04:12;;;;;;;47.37;5.27;;;;;;;8.36;100.00;98452.78;5082462;28;20602;-63
2022/01/02 05:06:39;;;;;;;48.57;5.50;;;;;;;8.17;100.00;98451.28;5084037;28;21452;-63
2022/01/02 05:09:06;;;;;;;45.60;4.73;;;;;;;7.51;100.00;98444.50;5082792;28;20627;-63
2022/01/02 05:11:34;;;;;;;54.37;5.70;;;;;;;7.83;100.00;98455.59;5080325;28;20632;-62
2022/01/02 05:14:00;;;;;;;13.20;3.03;;;;;;;7.86;100.00;98462.31;5080586;28;20632;-63
2022/01/02 05:16:27;;;;;;;55.53;5.97;;;;;;;7.41;100.00;98457.56;5083879;28;20663;-62
2022/01/02 05:18:54;;;;;;;67.63;6.50;;;;;;;7.31;100.00;98459.94;5083732;28;20633;-63
2022/01/02 05:21:20;;;;;;;52.77;5.33;;;;;;;7.81;100.00;98462.19;5080646;28;20646;-62
2022/01/02 05:23:47;;;;;;;47.90;6.13;;;;;;;7.90;100.00;98452.81;5068815;28;20614;-62
2022/01/02 05:26:13;;;;;;;93.07;8.30;;;;;;;8.34;100.00;98470.03;5082151;28;20598;-63
2022/01/02 05:28:41;;;;;;;61.60;5.43;;;;;;;7.84;100.00;98459.06;5083503;28;20639;-62
2022/01/02 05:31:08;;;;;;;107.37;7.73;;;;;;;7.02;100.00;98461.59;5081811;28;20624;-63
2022/01/02 05:33:35;;;;;;;51.10;5.40;;;;;;;7.21;100.00;98450.94;5079738;28;20614;-63
2022/01/02 05:36:01;;;;;;;92.33;7.50;;;;;;;7.44;100.00;98449.13;5080118;28;20660;-62
2022/01/02 05:38:28;;;;;;;58.47;6.43;;;;;;;7.52;100.00;98440.78;5083045;28;21210;-62
2022/01/02 05:40:56;;;;;;;63.07;6.40;;;;;;;8.02;100.00;98438.47;5083139;28;20660;-63
2022/01/02 05:43:22;;;;;;;32.77;4.70;;;;;;;8.01;100.00;98444.84;5080079;28;20641;-62
2022/01/02 05:45:50;;;;;;;107.80;8.47;;;;;;;8.04;100.00;98438.25;5079537;28;20633;-63
2022/01/02 05:48:17;;;;;;;49.30;5.30;;;;;;;7.46;100.00;98428.44;5082341;28;20602;-62
2022/01/02 05:50:44;;;;;;;97.73;7.93;;;;;;;7.11;100.00;98438.22;5083113;28;20643;-63
2022/01/02 05:53:10;;;;;;;82.17;7.27;;;;;;;6.90;100.00;98425.47;5070039;28;20603;-62
2022/01/02 05:55:37;;;;;;;77.20;5.60;;;;;;;6.26;100.00;98428.75;5079613;28;20618;-62
2022/01/02 05:58:04;;;;;;;71.13;5.90;;;;;;;5.75;100.00;98426.44;5080151;28;20653;-63
2022/01/02 06:00:31;;;;;;;50.00;5.70;;;;;;;5.40;100.00;98426.97;5082864;28;20640;-63
2022/01/02 06:02:59;;;;;;;45.50;5.50;;;;;;;5.89;100.00;98441.19;5082845;28;20685;-63
2022/01/02 06:05:26;;;;;;;56.73;6.40;;;;;;;6.73;100.00;98445.69;5082848;28;20602;-63
2022/01/02 06:07:52;;;;;;;31.37;4.97;;;;;;;6.85;100.00;98439.41;5082662;28;20619;-63
2022/01/02 06:10:19;;;;;;;66.47;6.17;;;;;;;7.01;100.00;98425.50;5079888;28;20611;-63
2022/01/02 06:12:46;;;;;;;49.37;5.70;;;;;;;6.94;100.00;98426.59;5079237;28;20602;-63
2022/01/02 06:15:12;;;;;;;93.53;8.07;;;;;;;6.99;100.00;98414.25;5080921;28;20598;-63
2022/01/02 06:17:39;;;;;;;68.07;6.13;;;;;;;7.23;100.00;98414.31;5082535;28;20608;-64
2022/01/02 06:20:08;;;;;;;43.60;4.73;;;;;;;6.88;100.00;98415.06;5081408;28;20637;-63
2022/01/02 06:22:34;;;;;;;59.00;6.20;;;;;;;6.81;100.00;98411.69;5078730;28;20598;-63
2022/01/02 06:25:01;;;;;;;29.83;5.87;;;;;;;6.72;100.00;98417.53;5075749;28;20605;-63
2022/01/02 06:27:28;;;;;;;36.27;5.23;;;;;;;6.20;100.00;98417.19;5078900;28;20633;-62
2022/01/02 06:29:54;;;;;;;54.33;6.13;;;;;;;5.91;100.00;98434.66;5078799;28;20602;-63
2022/01/02 06:32:21;;;;;;;32.90;5.07;;;;;;;6.80;100.00;98436.63;5081919;28;20635;-63
2022/01/02 06:34:48;;;;;;;61.73;7.80;;;;;;;7.66;100.00;98440.56;5082158;28;20616;-63
2022/01/02 06:37:15;;;;;;;50.53;5.50;;;;;;;8.19;100.00;98441.22;5080020;28;20609;-63
2022/01/02 06:39:42;;;;;;;31.53;5.00;;;;;;;8.39;100.00;98428.34;5078585;28;20602;-63
2022/01/02 06:42:09;;;;;;;48.50;5.73;;;;;;;8.46;100.00;98431.69;5079728;28;20616;-63
2022/01/02 06:44:36;;;;;;;26.77;4.67;;;;;;;8.64;100.00;98428.84;5081788;28;20629;-63
2022/01/02 06:47:02;;;;;;;42.50;5.80;;;;;;;8.53;100.00;98424.38;5081476;28;20614;-62
2022/01/02 06:49:29;;;;;;;103.20;8.00;;;;;;;8.59;100.00;98422.63;5078014;28;20606;-64
2022/01/02 06:51:56;;;;;;;67.00;6.57;;;;;;;8.52;100.00;98425.44;5078165;28;20674;-64
2022/01/02 06:54:24;;;;;;;71.17;6.57;;;;;;;8.00;100.00;98418.47;5070279;28;20636;-63
2022/01/02 06:56:50;;;;;;;47.20;5.07;;;;;;;8.11;100.00;98417.63;5081780;28;21436;-63
2022/01/02 06:59:17;;;;;;;85.03;7.27;;;;;;;7.79;100.00;98419.09;5079252;28;20624;-63
2022/01/02 07:01:44;;;;;;;48.87;5.70;;;;;;;7.30;100.00;98410.53;5078278;28;20791;-63
2022/01/02 07:04:10;;;;;;;57.90;5.70;;;;;;;7.66;100.00;98414.00;5079829;28;20645;-62
2022/01/02 07:06:37;;;;;;;21.73;4.50;;;;;;;7.92;100.00;98400.22;5081745;28;20601;-63
2022/01/02 07:09:03;;;;;;;44.03;5.43;;;;;;;7.51;100.00;98398.53;5080828;28;20613;-63
2022/01/02 07:11:32;;;;;;;18.70;4.43;;;;;;;7.60;100.00;98411.22;5078207;28;20606;-63
2022/01/02 07:13:58;;;;;;;67.80;6.07;;;;;;;8.16;100.00;98404.44;5077988;28;20618;-63
2022/01/02 07:16:25;;;;;;;81.37;7.53;;;;;;;7.92;100.00;98392.25;5069837;28;20602;-63
2022/01/02 07:18:51;;;;;;;37.00;4.53;;;;;;;8.15;100.00;98386.88;5077883;28;20610;-63
2022/01/02 07:21:18;;;;;;;41.37;5.00;;;;;;;7.95;100.00;98392.56;5080507;28;20692;-64
2022/01/02 07:23:45;;;;;;;57.23;6.07;;;;;;;8.15;100.00;98378.88;5079795;28;20681;-62
2022/01/02 07:26:12;;;;;;;52.00;5.90;;;;;;;7.51;100.00;98385.22;5079369;28;20609;-63
2022/01/02 07:28:40;;;;;;;42.17;5.40;;;;;;;7.57;100.00;98385.13;5077840;28;20594;-63
2022/01/02 07:31:07;;;;;;;54.50;6.23;;;;;;;7.95;100.00;98371.28;5078751;28;20610;-63
2022/01/02 07:33:33;;;;;;;65.63;6.60;;;;;;;7.67;100.00;98373.09;5081294;28;20707;-63
2022/01/02 07:36:00;;;;;;;43.50;5.40;;;;;;;7.45;100.00;98363.06;5080856;28;20601;-63
2022/01/02 07:38:27;;;;;;;41.87;6.13;;;;;;;6.87;100.00;98351.59;5077767;28;20590;-63
2022/01/02 07:40:53;;;;;;;68.83;6.30;;;;;;;6.69;100.00;98343.66;5077440;28;20646;-63
2022/01/02 07:43:20;;;;;;;23.37;4.60;;;;;;;6.91;100.00;98352.72;5080588;28;20616;-63
2022/01/02 07:45:48;;;;;;;46.17;5.70;;;;;;;7.01;100.00;98350.31;5080813;28;20637;-63
2022/01/02 07:48:14;;;;;;;70.07;6.93;;;;;;;6.78;100.00;98350.25;5078744;28;20617;-64
2022/01/02 07:50:41;;;;;;;81.87;8.17;;;;;;;7.01;100.00;98353.78;5077547;28;21132;-63
2022/01/02 07:53:08;;;;;;;50.70;5.73;;;;;;;7.38;100.00;98353.56;5073928;28;21460;-63
2022/01/02 07:55:34;;;;;;;35.00;4.87;;;;;;;7.36;100.00;98355.66;5077528;28;20603;-63
2022/01/02 07:58:01;;;;;;;66.87;7.43;;;;;;;7.43;100.00;98356.31;5077693;28;20598;-64
2022/01/02 08:00:28;;;;;;;53.33;5.90;;;;;;;7.97;100.00;98363.09;5080854;28;20653;-63
2022/01/02 08:02:56;;;;;;;46.87;5.60;;;;;;;8.11;100.00;98365.25;5084740;28;20636;-63
2022/01/02 08:05:23;;;;;;;49.70;5.83;;;;;;;7.91;100.00;98356.06;5081736;28;20599;-63
2022/01/02 08:07:49;;;;;;;34.17;3.73;;;;;;;7.44;100.00;98358.78;5081541;28;20590;-62
2022/01/02 08:10:16;;;;;;;62.50;6.30;;;;;;;7.65;100.00;98361.84;5084045;28;20629;-64
2022/01/02 08:12:43;;;;;;;50.20;5.37;;;;;;;7.83;100.00;98364.41;5084870;28;20589;-64
2022/01/02 08:15:10;;;;;;;92.73;7.70;;;;;;;7.65;100.00;98362.69;5083406;28;20593;-64
2022/01/02 08:17:37;;;;;;;66.60;5.90;;;;;;;7.57;100.00;98358.53;5080188;28;20598;-62
2022/01/02 08:20:06;;;;;;;37.93;5.07;;;;;;;7.25;100.00;98359.09;5081809;28;20594;-63
2022/01/02 08:22:32;;;;;;;38.77;4.70;;;;;;;7.30;100.00;98370.69;5080594;28;20636;-64
2022/01/02 08:24:59;;;;;;;42.40;5.83;;;;;;;7.72;100.00;98363.38;5077713;28;20598;-63
2022/01/02 08:27:26;;;;;;;34.27;4.73;;;;;;;7.99;100.00;98359.16;5084555;28;20606;-63
2022/01/02 08:29:52;;;;;;;72.10;6.67;;;;;;;8.12;100.00;98368.72;5084619;28;20605;-63
2022/01/02 08:32:19;;;;;;;43.50;5.97;;;;;;;8.30;100.00;98363.25;5081681;28;20640;-63
2022/01/02 08:34:46;;;;;;;51.50;5.43;;;;;;;7.90;100.00;98349.09;5080923;28;20594;-64
2022/01/02 08:37:15;;;;;;;27.60;4.33;;;;;;;7.62;100.00;98341.88;5082697;28;20610;-63
2022/01/02 08:39:42;;;;;;;55.90;5.93;;;;;;;7.38;100.00;98334.97;5084389;28;20609;-63
2022/01/02 08:42:08;;;;;;;66.17;7.20;;;;;;;7.33;100.00;98342.84;5082674;28;20726;-62
2022/01/02 08:44:37;;;;;;;21.67;4.90;;;;;;;7.38;100.00;98343.75;5080558;28;20653;-63
2022/01/02 08:47:04;;;;;;;58.50;6.67;;;;;;;7.27;100.00;98343.75;5081295;28;20632;-63
2022/01/02 08:49:30;;;;;;;18.10;4.30;;;;;;;7.32;100.00;98344.69;5084308;28;20605;-63
2022/01/02 08:51:57;;;;;;;32.90;5.23;;;;;;;7.77;100.00;98350.16;5084114;28;20606;-63
2022/01/02 08:54:25;;;;;;;60.90;6.33;;;;;;;7.98;100.00;98346.88;5072414;28;20585;-62
2022/01/02 08:56:51;;;;;;;60.80;6.70;;;;;;;8.02;100.00;98341.91;5083833;28;20605;-63
2022/01/02 08:59:24;;;;;;;25.97;4.93;;;;;;;8.19;100.00;98344.63;5081467;28;20616;-63
2022/01/02 09:01:50;;;;;;;105.07;8.27;;;;;;;8.26;100.00;98340.81;5080215;28;20630;-63
2022/01/02 09:04:17;;;;;;;38.67;6.07;;;;;;;8.39;100.00;98334.41;5082823;28;20610;-63
2022/01/02 09:06:44;;;;;;;47.53;6.13;;;;;;;8.29;100.00;98347.53;5083883;28;20608;-63
2022/01/02 09:09:10;;;;;;;45.07;6.80;;;;;;;8.37;100.00;98337.31;5082160;28;20589;-63
2022/01/02 09:11:38;;;;;;;82.50;8.70;;;;;;;8.26;100.00;98350.63;5080232;28;20679;-63
2022/01/02 09:14:05;;;;;;;33.70;6.10;;;;;;;8.58;100.00;98341.94;5080231;28;20621;-63
2022/01/02 09:16:33;;;;;;;32.03;5.27;;;;;;;8.48;100.00;98339.09;5083743;28;20606;-63
2022/01/02 09:19:00;;;;;;;68.43;6.90;;;;;;;7.76;100.00;98339.78;5083235;28;20609;-64
2022/01/02 09:21:27;;;;;;;71.97;6.50;;;;;;;7.49;100.00;98337.63;5079918;28;20645;-63
2022/01/02 09:23:53;;;;;;;53.50;7.37;;;;;;;7.09;100.00;98344.66;5068663;28;20640;-63
2022/01/02 09:26:20;;;;;;;80.17;9.33;;;;;;;7.39;100.00;98344.56;5082626;28;20621;-63
2022/01/02 09:28:48;;;;;;;33.83;6.00;;;;;;;7.98;100.00;98335.47;5083436;28;20597;-63
2022/01/02 09:31:14;;;;;;;44.13;6.47;;;;;;;8.23;100.00;98335.97;5081326;28;20655;-64
2022/01/02 09:33:41;;;;;;;75.47;7.60;;;;;;;8.32;100.00;98336.41;5079753;28;20668;-63
2022/01/02 09:36:08;;;;;;;74.17;9.37;;;;;;;8.32;100.00;98344.41;5080898;28;20598;-64
2022/01/02 09:38:34;;;;;;;107.73;10.00;;;;;;;8.14;100.00;98327.53;5083230;28;20609;-64
2022/01/02 09:41:01;;;;;;;36.07;6.83;;;;;;;8.23;100.00;98335.16;5082755;28;20625;-63
2022/01/02 09:43:28;;;;;;;104.57;10.70;;;;;;;8.24;100.00;98332.22;5078637;28;20703;-64
2022/01/02 09:45:56;;;;;;;53.93;8.43;;;;;;;8.43;100.00;98333.69;5079244;28;20625;-63
2022/01/02 09:48:23;;;;;;;33.23;7.63;;;;;;;8.24;100.00;98326.91;5082679;28;20597;-63
2022/01/02 09:50:51;;;;;;;49.57;7.40;;;;;;;8.10;100.00;98325.59;5082926;28;20665;-63
2022/01/02 09:53:19;;;;;;;96.07;10.23;;;;;;;7.80;100.00;98314.34;5068954;28;20619;-63
2022/01/02 09:55:45;;;;;;;52.97;7.90;;;;;;;7.69;100.00;98309.84;5079594;28;20599;-63
2022/01/02 09:58:12;;;;;;;53.93;7.60;;;;;;;6.89;100.00;98297.22;5080796;28;20644;-64
2022/01/02 10:00:40;;;;;;;84.93;8.80;;;;;;;6.51;100.00;98300.25;5082541;28;20620;-63
2022/01/02 10:03:10;;;;;;;28.73;6.93;;;;;;;6.36;100.00;98301.72;5081539;28;20639;-64
2022/01/02 10:05:51;;;;;;;85.00;9.17;;;;;;;6.27;100.00;98290.63;5079217;28;20607;-63
2022/01/02 10:08:23;;;;;;;33.43;7.07;;;;;;;6.13;100.00;98291.03;5081744;28;21265;-63
2022/01/02 10:10:59;;;;;;;43.40;8.67;;;;;;;5.96;100.00;98293.50;5082645;28;21405;-63
2022/01/02 10:13:38;;;;;;;42.70;7.43;;;;;;;5.79;100.00;98300.41;5071108;28;20618;-65
2022/01/02 10:16:05;;;;;;;32.73;6.43;;;;;;;5.76;100.00;98291.06;5079751;28;20590;-63
2022/01/02 10:18:33;;;;;;;31.13;7.50;;;;;;;5.63;100.00;98293.84;5082528;28;20636;-64
2022/01/02 10:21:00;;;;;;;51.80;7.73;;;;;;;5.57;100.00;98286.00;5082193;28;21065;-64
2022/01/02 10:23:27;;;;;;;29.60;6.80;;;;;;;5.69;100.00;98277.09;5067497;28;20621;-63
2022/01/02 10:25:56;;;;;;;87.67;9.80;;;;;;;6.12;100.00;98286.75;5077661;28;20622;-63
2022/01/02 10:28:32;;;;;;;52.70;8.70;;;;;;;6.26;100.00;98282.88;5082075;28;20620;-64
2022/01/02 10:31:02;;;;;;;44.97;8.03;;;;;;;6.26;100.00;98269.63;5082166;28;20609;-64
2022/01/02 10:33:45;;;;;;;50.30;7.40;;;;;;;6.12;100.00;98262.91;5071189;28;20620;-63
2022/01/02 10:36:13;;;;;;;59.13;7.93;;;;;;;6.08;100.00;98251.13;5080378;28;20610;-64
2022/01/02 10:38:40;;;;;;;43.23;7.43;;;;;;;6.15;100.00;98254.50;5082162;28;20617;-63
2022/01/02 10:41:07;;;;;;;33.57;6.57;;;;;;;6.29;100.00;98256.72;5080750;28;20636;-63
2022/01/02 10:43:34;;;;;;;41.33;7.67;;;;;;;6.35;100.00;98252.34;5078558;28;20637;-63
2022/01/02 10:46:07;;;;;;;42.13;8.33;;;;;;;6.41;100.00;98254.09;5078485;28;20633;-63
2022/01/02 10:48:36;;;;;;;82.87;9.63;;;;;;;6.26;100.00;98265.13;5081946;28;20614;-63
2022/01/02 10:51:06;;;;;;;43.70;9.30;;;;;;;6.61;100.00;98256.44;5081404;28;20639;-63
2022/01/02 10:53:36;;;;;;;56.33;8.17;;;;;;;6.28;100.00;98268.34;5066830;28;21201;-62
2022/01/02 10:56:04;;;;;;;73.90;10.10;;;;;;;6.58;100.00;98262.19;5078619;28;20629;-62
2022/01/02 10:58:33;;;;;;;26.97;7.17;;;;;;;6.26;100.00;98251.88;5081822;28;20621;-63
2022/01/02 11:01:04;;;;;;;42.07;8.83;;;;;;;6.25;100.00;98236.19;5081573;28;20709;-64
2022/01/02 11:03:31;;;;;;;60.80;9.63;;;;;;;6.13;100.00;98233.50;5078199;28;20640;-63
2022/01/02 11:06:06;;;;;;;53.80;9.03;;;;;;;6.40;100.00;98236.56;5077860;28;20598;-63
2022/01/02 11:08:36;;;;;;;37.87;8.10;;;;;;;6.24;100.00;98230.06;5071028;28;20636;-63
2022/01/02 11:11:04;;;;;;;60.73;10.23;;;;;;;6.32;100.00;98229.72;5078297;28;20609;-63
2022/01/02 11:13:32;;;;;;;58.00;9.43;;;;;;;6.26;100.00;98232.47;5081358;28;20605;-63
2022/01/02 11:16:01;;;;;;;38.27;8.00;;;;;;;6.65;100.00;98233.72;5081392;28;20670;-63
2022/01/02 11:18:32;;;;;;;72.83;10.90;;;;;;;6.76;100.00;98227.59;5070140;28;20678;-63
2022/01/02 11:20:59;;;;;;;48.10;10.00;;;;;;;6.67;100.00;98219.16;5077677;28;20725;-62
2022/01/02 11:23:31;;;;;;;94.10;11.93;;;;;;;6.82;100.00;98242.59;5058156;28;20613;-63
2022/01/02 11:26:11;;;;;;;59.03;11.10;;;;;;;6.97;100.00;98229.66;5077697;28;20607;-63
2022/01/02 11:28:40;;;;;;;32.87;9.60;;;;;;;6.91;100.00;98227.94;5071192;28;21514;-64
2022/01/02 11:31:09;;;;;;;108.47;13.70;;;;;;;6.98;100.00;98236.59;5078485;28;20606;-63